This is the latest recevied weather packets stored in our database for station/object KJ4AJP. If no packets are shown the sender has not sent any weather packets the latest 10 day(s).
| Time | Temp. | Humidity | Pressure | Rain* | Wind** | Luminosity | Snow |
|---|---|---|---|---|---|---|---|
| 1777757524 | 18.89° C | 43% | 1016.8 hPa | 0 mm | - | 159 W/m² | - |
| 1777757222 | 19.44° C | 38% | 1016.7 hPa | 0 mm | - | 483 W/m² | - |
| 1777756920 | 20° C | 33% | 1016.6 hPa | 0 mm | - | 305 W/m² | - |
| 1777756616 | 19.44° C | 34% | 1016.5 hPa | 0 mm | - | 379 W/m² | - |
| 1777756313 | 19.44° C | 37% | 1016.5 hPa | 0 mm | - | 334 W/m² | - |
| 1777756010 | 20° C | 33% | 1016.5 hPa | 0 mm | - | 117 W/m² | - |
| 1777755707 | 20° C | 36% | 1016.4 hPa | 0 mm | - | 175 W/m² | - |
| 1777755404 | 20° C | 35% | 1016.4 hPa | 0 mm | - | 558 W/m² | - |
| 1777755100 | 19.44° C | 35% | 1016.6 hPa | 0 mm | - | 237 W/m² | - |
| 1777754798 | 20.56° C | 33% | 1016.5 hPa | 0 mm | - | 156 W/m² | - |
| 1777754495 | 20.56° C | 33% | 1016.6 hPa | 0 mm | - | 212 W/m² | - |
| 1777754192 | 20° C | 36% | 1016.5 hPa | 0 mm | - | 678 W/m² | - |
| 1777753890 | 20.56° C | 34% | 1016.7 hPa | 0 mm | - | 655 W/m² | - |
| 1777753585 | 21.11° C | 34% | 1016.4 hPa | 0 mm | - | 206 W/m² | - |
| 1777753283 | 21.11° C | 38% | 1016.7 hPa | 0 mm | - | 658 W/m² | - |
| 1777752979 | 21.11° C | 33% | 1016.8 hPa | 0 mm | - | 700 W/m² | - |
| 1777752676 | 21.67° C | 31% | 1016.5 hPa | 0 mm | - | 698 W/m² | - |
| 1777752372 | 21.67° C | 33% | 1016.7 hPa | 0 mm | - | 734 W/m² | - |
| 1777752070 | 21.11° C | 35% | 1016.5 hPa | 0 mm | - | 823 W/m² | - |
| 1777751768 | 20.56° C | 33% | 1016.6 hPa | 0 mm | - | 425 W/m² | - |
| 1777751463 | 21.11° C | 34% | 1016.6 hPa | 0 mm | - | 791 W/m² | - |
| 1777751160 | 21.11° C | 33% | 1016.5 hPa | 0 mm | - | 777 W/m² | - |
| 1777750856 | 21.67° C | 33% | 1016.4 hPa | 0 mm | - | 751 W/m² | - |
| 1777750553 | 21.11° C | 34% | 1016.5 hPa | 0 mm | - | 768 W/m² | - |
| 1777750250 | 20° C | 39% | 1016.6 hPa | 0 mm | - | 805 W/m² | - |
* Rain latest hour (hover to see other rain measurements)
** Current wind speed in m/s (hover to see current wind gust speed)